createdAt,value
2022-11-04T00:01:43.845Z,13.07
2022-11-04T00:04:11.315Z,12.96
2022-11-04T00:06:38.363Z,12.82
2022-11-04T00:09:07.156Z,12.98
2022-11-04T00:11:52.218Z,12.89
2022-11-04T00:14:19.235Z,12.88
2022-11-04T00:17:04.419Z,12.92
2022-11-04T00:19:52.132Z,12.77
2022-11-04T00:22:37.666Z,13.00
2022-11-04T00:25:23.924Z,12.80
2022-11-04T00:28:09.536Z,12.76
2022-11-04T00:30:36.322Z,12.87
2022-11-04T00:33:21.520Z,12.65
2022-11-04T00:35:49.814Z,12.98
2022-11-04T00:38:17.418Z,12.62
2022-11-04T00:40:44.229Z,12.83
2022-11-04T00:43:10.959Z,12.85
2022-11-04T00:45:37.429Z,13.06
2022-11-04T00:48:04.131Z,12.81
2022-11-04T00:50:30.588Z,13.00
2022-11-04T00:53:00.969Z,12.85
2022-11-04T00:55:27.762Z,13.10
2022-11-04T00:57:54.717Z,13.06
2022-11-04T01:00:21.387Z,12.98
2022-11-04T01:02:48.227Z,13.33
2022-11-04T01:05:14.787Z,13.06
2022-11-04T01:07:43.800Z,12.91
2022-11-04T01:10:10.927Z,13.19
2022-11-04T01:12:37.400Z,12.86
2022-11-04T01:15:04.108Z,13.10
2022-11-04T01:17:30.598Z,12.85
2022-11-04T01:19:57.149Z,12.77
2022-11-04T01:22:23.581Z,12.89
2022-11-04T01:24:50.026Z,12.99
2022-11-04T01:27:16.450Z,13.22
2022-11-04T01:29:42.956Z,13.27
2022-11-04T01:32:09.390Z,13.17
2022-11-04T01:34:40.653Z,13.11
2022-11-04T01:37:09.896Z,13.00
2022-11-04T01:39:36.372Z,13.01
2022-11-04T01:45:14.432Z,12.86
2022-11-04T01:47:44.886Z,12.94
2022-11-04T01:50:15.107Z,12.85
2022-11-04T01:52:47.261Z,12.79
2022-11-04T01:55:17.869Z,12.79
2022-11-04T01:57:47.448Z,12.94
2022-11-04T02:00:14.576Z,12.95
2022-11-04T02:02:48.572Z,12.97
2022-11-04T02:05:15.057Z,12.93
2022-11-04T02:07:41.638Z,12.84
2022-11-04T02:10:08.403Z,12.85
2022-11-04T02:12:49.989Z,12.90
2022-11-04T02:15:35.997Z,13.12
2022-11-04T02:18:24.459Z,13.08
2022-11-04T02:21:11.785Z,13.45
2022-11-04T02:24:06.279Z,13.26
2022-11-04T02:27:10.460Z,13.10
2022-11-04T02:29:52.109Z,13.30
2022-11-04T02:32:38.111Z,13.23
2022-11-04T02:35:23.463Z,13.44
2022-11-04T02:38:14.604Z,12.80
2022-11-04T02:41:05.430Z,13.28
2022-11-04T02:43:34.982Z,13.06
2022-11-04T02:46:16.731Z,13.29
2022-11-04T02:49:09.168Z,13.16
2022-11-04T02:52:18.136Z,12.97
2022-11-04T02:54:49.019Z,12.86
2022-11-04T02:57:19.858Z,13.16
2022-11-04T02:59:49.259Z,12.94
2022-11-04T03:02:19.346Z,13.29
2022-11-04T03:04:49.911Z,13.21
2022-11-04T03:07:19.902Z,12.94
2022-11-04T03:09:50.347Z,12.90
2022-11-04T03:12:18.333Z,13.15
2022-11-04T03:14:49.134Z,12.66
2022-11-04T03:17:23.398Z,12.94
2022-11-04T03:19:54.740Z,13.07
2022-11-04T03:22:22.752Z,13.11
2022-11-04T03:24:49.667Z,12.72
2022-11-04T03:27:27.521Z,13.12
2022-11-04T03:30:02.193Z,13.10
2022-11-04T03:32:53.952Z,13.24
2022-11-04T03:35:20.598Z,13.25
2022-11-04T03:37:48.284Z,13.04
2022-11-04T03:40:15.877Z,13.15
2022-11-04T03:42:46.482Z,13.14
2022-11-04T03:45:13.693Z,13.11
2022-11-04T03:47:41.048Z,13.15
2022-11-04T03:50:13.493Z,13.02
2022-11-04T03:52:40.220Z,13.22
2022-11-04T03:55:07.572Z,12.89
2022-11-04T03:57:56.982Z,13.11
2022-11-04T04:00:24.087Z,13.02
2022-11-04T04:03:06.471Z,13.15
2022-11-04T04:05:35.942Z,12.78
2022-11-04T04:08:41.292Z,12.96
2022-11-04T04:11:21.296Z,13.11
2022-11-04T04:13:56.882Z,13.13
2022-11-04T04:16:29.495Z,13.26
2022-11-04T04:19:06.145Z,13.39
2022-11-04T04:21:38.090Z,13.18
2022-11-04T04:24:25.082Z,13.40
2022-11-04T04:27:11.103Z,13.33
2022-11-04T04:29:38.310Z,12.92
2022-11-04T04:32:05.520Z,13.08
2022-11-04T04:34:33.098Z,13.28
2022-11-04T04:37:05.916Z,12.91
2022-11-04T04:40:26.650Z,13.39
2022-11-04T04:43:12.024Z,13.10
2022-11-04T04:45:41.230Z,13.05
2022-11-04T04:48:09.905Z,13.11
2022-11-04T04:50:38.901Z,13.02
2022-11-04T04:53:05.533Z,12.86
2022-11-04T04:55:35.167Z,12.81
2022-11-04T04:58:03.850Z,13.23
2022-11-04T05:00:30.356Z,13.01
2022-11-04T05:02:56.813Z,12.88
2022-11-04T05:05:23.685Z,13.08
2022-11-04T05:07:50.204Z,12.97
2022-11-04T05:10:17.697Z,13.26
2022-11-04T05:13:02.727Z,13.13
2022-11-04T05:15:30.015Z,13.47
2022-11-04T05:17:58.408Z,13.04
2022-11-04T05:20:25.144Z,13.20
2022-11-04T05:22:51.766Z,12.81
2022-11-04T05:25:18.232Z,12.69
2022-11-04T05:27:44.675Z,13.11
2022-11-04T05:30:11.513Z,12.86
2022-11-04T05:32:37.959Z,12.87
2022-11-04T05:35:04.704Z,13.13
2022-11-04T05:37:31.162Z,12.96
2022-11-04T05:39:57.639Z,13.16
2022-11-04T05:42:24.078Z,12.69
2022-11-04T05:44:50.539Z,13.31
2022-11-04T05:47:17.122Z,12.96
2022-11-04T05:49:43.650Z,13.05
2022-11-04T05:52:10.127Z,12.91
2022-11-04T05:54:38.292Z,12.95
2022-11-04T05:57:04.805Z,13.08
2022-11-04T05:59:31.262Z,12.87
2022-11-04T06:01:57.815Z,12.84
2022-11-04T06:04:24.422Z,12.95
2022-11-04T06:06:51.961Z,12.66
2022-11-04T06:09:18.451Z,13.02
2022-11-04T06:11:45.410Z,13.11
2022-11-04T06:14:17.463Z,12.97
2022-11-04T06:16:45.095Z,12.72
2022-11-04T06:19:15.941Z,13.16
2022-11-04T06:21:42.706Z,12.98
2022-11-04T06:24:09.171Z,12.98
2022-11-04T06:26:35.644Z,12.98
2022-11-04T06:29:02.113Z,12.75
2022-11-04T06:31:28.572Z,13.09
2022-11-04T06:33:55.004Z,13.16
2022-11-04T06:36:21.643Z,12.87
2022-11-04T06:38:48.173Z,12.95
2022-11-04T06:41:16.356Z,12.95
2022-11-04T06:43:42.844Z,13.08
2022-11-04T06:46:24.207Z,13.14
2022-11-04T06:48:50.633Z,12.97
2022-11-04T06:51:17.096Z,12.85
2022-11-04T06:53:43.528Z,12.85
2022-11-04T06:56:10.334Z,12.72
2022-11-04T06:58:36.773Z,12.70
2022-11-04T07:01:07.461Z,12.56
2022-11-04T07:03:39.177Z,12.86
2022-11-04T07:06:07.305Z,12.74
2022-11-04T07:08:33.766Z,12.73
2022-11-04T07:11:00.264Z,12.98
2022-11-04T07:13:26.745Z,13.05
2022-11-04T07:15:53.250Z,13.02
2022-11-04T07:20:47.599Z,12.79
2022-11-04T07:23:14.071Z,12.86
2022-11-04T07:25:40.708Z,12.93
2022-11-04T07:28:07.423Z,12.99
2022-11-04T07:30:34.133Z,13.35
2022-11-04T07:33:00.587Z,12.94
2022-11-04T07:35:27.056Z,13.13
2022-11-04T07:37:55.082Z,13.37
2022-11-04T07:40:21.551Z,13.08
2022-11-04T07:42:48.039Z,13.34
2022-11-04T07:45:14.579Z,13.33
2022-11-04T07:47:41.032Z,13.30
2022-11-04T07:50:10.947Z,12.99
2022-11-04T07:52:37.627Z,12.98
2022-11-04T07:55:04.435Z,13.22
2022-11-04T07:57:30.917Z,12.92
2022-11-04T07:59:57.404Z,12.79
2022-11-04T08:02:26.764Z,13.24
2022-11-04T08:04:56.657Z,13.13
2022-11-04T08:07:23.161Z,13.43
2022-11-04T08:09:49.644Z,12.99
2022-11-04T08:12:16.109Z,13.51
2022-11-04T08:14:42.596Z,13.12
2022-11-04T08:17:10.057Z,13.28
2022-11-04T08:19:36.565Z,13.14
2022-11-04T08:22:03.030Z,13.31
2022-11-04T08:24:29.521Z,13.76
2022-11-04T08:26:55.970Z,13.75
2022-11-04T08:29:23.780Z,13.61
2022-11-04T08:31:50.204Z,13.81
2022-11-04T08:34:18.399Z,13.61
2022-11-04T08:36:45.428Z,13.90
2022-11-04T08:39:13.057Z,13.58
2022-11-04T08:41:42.012Z,13.82
2022-11-04T08:44:09.233Z,13.63
2022-11-04T08:46:38.400Z,13.27
2022-11-04T08:49:10.018Z,12.99
2022-11-04T08:51:41.058Z,13.42
2022-11-04T08:54:07.720Z,13.36
2022-11-04T08:56:36.549Z,13.59
2022-11-04T08:59:04.301Z,13.72
2022-11-04T09:01:35.769Z,13.15
2022-11-04T09:04:03.704Z,13.57
2022-11-04T09:06:34.303Z,13.56
2022-11-04T09:09:04.457Z,13.16
2022-11-04T09:11:33.442Z,13.33
2022-11-04T09:14:01.245Z,13.20
2022-11-04T09:16:29.421Z,13.45
2022-11-04T09:18:57.548Z,13.27
2022-11-04T09:21:25.148Z,13.85
2022-11-04T09:23:53.664Z,13.40
2022-11-04T09:26:25.695Z,13.82
2022-11-04T09:28:56.602Z,13.68
2022-11-04T09:31:24.119Z,13.44
2022-11-04T09:33:50.960Z,13.81
2022-11-04T09:36:17.655Z,14.07
2022-11-04T09:38:45.127Z,14.16
2022-11-04T09:41:36.598Z,13.66
2022-11-04T09:44:21.977Z,13.26
2022-11-04T09:46:49.531Z,14.08
2022-11-04T09:49:16.833Z,13.93
2022-11-04T09:51:55.427Z,14.26
2022-11-04T09:54:24.896Z,14.36
2022-11-04T09:56:53.202Z,13.91
2022-11-04T09:59:32.553Z,14.34
2022-11-04T10:02:07.357Z,13.65
2022-11-04T10:04:46.744Z,13.71
2022-11-04T10:07:21.189Z,14.08
2022-11-04T10:10:01.619Z,13.87
2022-11-04T10:12:49.496Z,14.15
2022-11-04T10:15:30.842Z,14.39
2022-11-04T10:18:14.996Z,13.75
2022-11-04T10:20:47.585Z,14.13
2022-11-04T10:23:27.122Z,13.95
2022-11-04T10:26:17.227Z,14.41
2022-11-04T10:28:52.449Z,14.55
2022-11-04T10:31:19.325Z,14.28
2022-11-04T10:33:50.116Z,14.17
2022-11-04T10:36:17.263Z,14.40
2022-11-04T10:38:51.387Z,14.54
2022-11-04T10:41:24.158Z,14.89
2022-11-04T10:43:57.767Z,15.44
2022-11-04T10:46:42.541Z,15.49
2022-11-04T10:49:34.340Z,15.11
2022-11-04T10:52:00.833Z,15.49
2022-11-04T10:54:27.701Z,15.47
2022-11-04T10:56:55.577Z,15.40
2022-11-04T10:59:29.025Z,14.71
2022-11-04T11:01:57.960Z,15.34
2022-11-04T11:04:29.157Z,15.22
2022-11-04T11:06:57.725Z,15.22
2022-11-04T11:09:29.587Z,14.93
2022-11-04T11:12:29.437Z,14.70
2022-11-04T11:14:52.877Z,14.53
2022-11-04T11:17:35.176Z,14.60
2022-11-04T11:20:08.404Z,14.36
2022-11-04T11:22:34.824Z,14.22
2022-11-04T11:25:30.964Z,14.52
2022-11-04T11:28:03.109Z,14.66
2022-11-04T11:30:45.882Z,14.53
2022-11-04T11:33:20.222Z,15.09
2022-11-04T11:35:52.141Z,14.80
2022-11-04T11:38:22.964Z,16.02
2022-11-04T11:41:18.818Z,15.47
2022-11-04T11:43:43.329Z,15.41
2022-11-04T11:46:10.813Z,15.02
2022-11-04T11:48:42.828Z,15.20
2022-11-04T11:51:38.745Z,15.17
2022-11-04T11:54:26.899Z,15.08
2022-11-04T12:02:59.428Z,16.01
2022-11-04T12:11:37.187Z,15.50
2022-11-04T12:14:16.005Z,15.19
2022-11-04T12:16:49.199Z,15.31
2022-11-04T12:19:37.927Z,15.13
2022-11-04T12:22:35.519Z,15.28
2022-11-04T12:25:24.647Z,15.56
2022-11-04T12:28:17.282Z,15.39
2022-11-04T12:31:00.055Z,15.34
2022-11-04T12:33:45.273Z,15.41
2022-11-04T12:36:32.941Z,15.01
2022-11-04T12:39:21.529Z,14.64
2022-11-04T12:42:29.687Z,14.92
2022-11-04T12:45:18.309Z,14.86
2022-11-04T12:47:46.081Z,15.38
2022-11-04T12:50:50.068Z,14.79
2022-11-04T12:53:33.271Z,15.20
2022-11-04T12:56:12.812Z,15.59
2022-11-04T12:58:53.534Z,15.78
2022-11-04T13:02:01.121Z,14.94
2022-11-04T13:04:36.635Z,15.21
2022-11-04T13:07:08.632Z,15.13
2022-11-04T13:09:43.408Z,14.92
2022-11-04T13:12:13.171Z,14.98
2022-11-04T13:14:47.648Z,14.27
2022-11-04T13:22:45.053Z,14.54
2022-11-04T13:25:20.102Z,13.84
2022-11-04T13:27:48.219Z,14.35
2022-11-04T13:30:30.029Z,14.25
2022-11-04T13:32:58.669Z,14.37
2022-11-04T13:35:33.586Z,14.75
2022-11-04T13:38:06.004Z,14.79
2022-11-04T13:40:45.965Z,14.11
2022-11-04T13:43:40.319Z,14.37
2022-11-04T13:46:17.589Z,14.92
2022-11-04T13:49:01.110Z,14.88
2022-11-04T13:51:45.617Z,14.64
2022-11-04T13:54:27.495Z,14.99
2022-11-04T13:57:04.953Z,14.66
2022-11-04T13:59:32.029Z,14.91
2022-11-04T14:02:11.074Z,15.46
2022-11-04T14:04:44.903Z,15.19
2022-11-04T14:07:14.433Z,15.47
2022-11-04T14:09:46.818Z,15.23
2022-11-04T14:12:17.169Z,15.53
2022-11-04T14:14:46.005Z,15.83
2022-11-04T14:17:44.583Z,15.33
2022-11-04T14:20:22.559Z,15.29
2022-11-04T14:22:49.737Z,14.69
2022-11-04T14:25:47.912Z,14.89
2022-11-04T14:28:14.309Z,15.02
2022-11-04T14:30:51.367Z,14.81
2022-11-04T14:33:27.101Z,14.28
2022-11-04T14:35:55.541Z,14.32
2022-11-04T14:38:29.654Z,14.90
2022-11-04T14:41:23.240Z,15.14
2022-11-04T14:43:50.181Z,14.91
2022-11-04T14:46:22.724Z,14.36
2022-11-04T14:48:52.448Z,14.25
2022-11-04T14:51:24.901Z,14.31
2022-11-04T14:53:52.774Z,14.45
2022-11-04T14:56:24.580Z,13.85
2022-11-04T14:59:05.575Z,14.37
2022-11-04T15:01:38.589Z,14.75
2022-11-04T15:04:13.484Z,14.10
2022-11-04T15:06:54.031Z,13.92
2022-11-04T15:09:27.614Z,14.44
2022-11-04T15:12:27.982Z,14.19
2022-11-04T15:14:55.544Z,14.06
2022-11-04T15:17:24.367Z,14.27
2022-11-04T15:19:52.207Z,14.11
2022-11-04T15:22:19.437Z,14.45
2022-11-04T15:24:46.320Z,14.44
2022-11-04T15:27:18.493Z,14.23
2022-11-04T15:29:55.109Z,14.48
2022-11-04T15:32:21.667Z,14.14
2022-11-04T15:34:48.226Z,14.42
2022-11-04T15:37:15.647Z,14.17
2022-11-04T15:39:46.904Z,14.16
2022-11-04T15:42:43.164Z,14.09
2022-11-04T15:45:21.955Z,14.03
2022-11-04T15:47:48.788Z,13.63
2022-11-04T15:50:22.317Z,13.54
2022-11-04T15:52:53.106Z,13.72
2022-11-04T15:55:22.955Z,13.79
2022-11-04T15:57:50.061Z,13.76
2022-11-04T16:00:16.487Z,13.84
2022-11-04T16:02:55.132Z,13.51
2022-11-04T16:05:24.638Z,13.74
2022-11-04T16:07:53.479Z,13.18
2022-11-04T16:10:32.623Z,13.36
2022-11-04T16:13:14.392Z,13.47
2022-11-04T16:15:49.587Z,13.49
2022-11-04T16:18:33.971Z,13.52
2022-11-04T16:21:06.350Z,13.30
2022-11-04T16:23:39.659Z,13.48
2022-11-04T16:26:06.879Z,13.40
2022-11-04T16:28:37.855Z,13.55
2022-11-04T16:31:25.082Z,13.40
2022-11-04T16:33:51.839Z,13.29
2022-11-04T16:36:23.717Z,13.27
2022-11-04T16:38:55.460Z,13.02
2022-11-04T16:41:26.292Z,13.31
2022-11-04T16:43:53.690Z,13.34
2022-11-04T16:46:20.489Z,13.25
2022-11-04T16:48:46.924Z,13.13
2022-11-04T16:51:18.235Z,13.21
2022-11-04T16:53:48.727Z,13.13
2022-11-04T16:56:16.408Z,13.04
2022-11-04T16:58:42.939Z,13.18
2022-11-04T17:01:13.264Z,13.16
2022-11-04T17:03:40.384Z,13.14
2022-11-04T17:06:07.053Z,13.12
2022-11-04T17:08:33.573Z,13.10
2022-11-04T17:11:00.090Z,12.96
2022-11-04T17:13:27.622Z,12.82
2022-11-04T17:15:55.407Z,12.91
2022-11-04T17:18:22.088Z,12.86
2022-11-04T17:20:51.290Z,12.99
2022-11-04T17:23:17.883Z,12.90
2022-11-04T17:25:45.220Z,12.83
2022-11-04T17:28:11.739Z,12.77
2022-11-04T17:30:39.015Z,12.76
2022-11-04T17:33:07.465Z,12.73
2022-11-04T17:35:35.200Z,12.69
2022-11-04T17:38:01.651Z,12.69
2022-11-04T17:40:28.367Z,12.80
2022-11-04T17:43:14.053Z,12.75
2022-11-04T17:45:43.940Z,12.76
2022-11-04T17:48:11.284Z,12.56
2022-11-04T17:50:39.373Z,12.53
2022-11-04T17:53:05.809Z,12.56
2022-11-04T17:55:37.291Z,12.51
2022-11-04T17:58:03.754Z,12.55
2022-11-04T18:00:30.260Z,12.52
2022-11-04T18:02:56.910Z,12.42
2022-11-04T18:05:23.427Z,12.36
2022-11-04T18:07:49.863Z,12.53
2022-11-04T18:10:16.513Z,12.38
2022-11-04T18:12:43.352Z,12.56
2022-11-04T18:15:31.243Z,12.57
2022-11-04T18:18:04.334Z,12.45
2022-11-04T18:20:38.171Z,12.53
2022-11-04T18:23:05.513Z,12.76
2022-11-04T18:25:32.564Z,12.41
2022-11-04T18:27:59.007Z,12.50
2022-11-04T18:30:26.618Z,12.46
2022-11-04T18:32:54.088Z,12.34
2022-11-04T18:35:20.535Z,12.30
2022-11-04T18:37:47.670Z,12.28
2022-11-04T18:40:14.748Z,12.21
2022-11-04T18:42:41.572Z,12.51
2022-11-04T18:45:08.903Z,12.08
2022-11-04T18:47:37.745Z,12.02
2022-11-04T18:50:04.565Z,12.20
2022-11-04T18:52:32.095Z,12.28
2022-11-04T18:54:59.217Z,11.99
2022-11-04T18:57:25.673Z,12.14
2022-11-04T18:59:52.221Z,11.97
2022-11-04T19:02:23.640Z,12.06
2022-11-04T19:04:50.957Z,12.12
2022-11-04T19:07:17.737Z,11.98
2022-11-04T19:09:47.152Z,12.01
2022-11-04T19:12:32.832Z,12.01
2022-11-04T19:14:59.345Z,12.01
2022-11-04T19:17:26.364Z,11.85
2022-11-04T19:19:54.105Z,12.06
2022-11-04T19:22:20.590Z,12.18
2022-11-04T19:24:47.098Z,12.07
2022-11-04T19:27:13.752Z,11.90
2022-11-04T19:29:40.213Z,12.11
2022-11-04T19:32:13.882Z,12.06
2022-11-04T19:34:43.241Z,11.84
2022-11-04T19:37:10.827Z,11.79
2022-11-04T19:39:39.782Z,11.76
2022-11-04T19:42:31.254Z,11.65
2022-11-04T19:44:57.789Z,11.82
2022-11-04T19:47:26.536Z,11.66
2022-11-04T19:49:53.263Z,11.64
2022-11-04T19:52:20.495Z,11.55
2022-11-04T19:54:47.167Z,11.51
2022-11-04T19:57:13.822Z,11.56
2022-11-04T19:59:43.208Z,11.58
2022-11-04T20:02:13.657Z,11.46
2022-11-04T20:04:42.102Z,11.44
2022-11-04T20:07:10.265Z,11.58
2022-11-04T20:09:37.593Z,11.39
2022-11-04T20:12:25.317Z,11.33
2022-11-04T20:14:55.361Z,11.15
2022-11-04T20:17:22.750Z,11.13
2022-11-04T20:19:49.217Z,11.18
2022-11-04T20:22:16.964Z,11.42
2022-11-04T20:24:43.861Z,11.30
2022-11-04T20:27:15.415Z,11.12
2022-11-04T20:29:43.000Z,11.04
2022-11-04T20:32:09.885Z,11.16
2022-11-04T20:34:37.833Z,10.90
2022-11-04T20:37:04.451Z,11.02
2022-11-04T20:39:31.114Z,10.92
2022-11-04T20:41:57.714Z,10.91
2022-11-04T20:44:24.772Z,11.08
2022-11-04T20:47:02.348Z,11.19
2022-11-04T20:49:28.862Z,10.84
2022-11-04T20:51:56.293Z,10.64
2022-11-04T20:54:22.943Z,10.85
2022-11-04T20:56:49.526Z,10.93
2022-11-04T20:59:16.817Z,10.86
2022-11-04T21:01:46.183Z,10.94
2022-11-04T21:04:15.528Z,11.04
2022-11-04T21:06:43.233Z,10.92
2022-11-04T21:09:12.264Z,10.63
2022-11-04T21:11:39.751Z,10.76
2022-11-04T21:14:12.797Z,10.60
2022-11-04T21:16:39.898Z,10.89
2022-11-04T21:19:07.829Z,10.83
2022-11-04T21:21:35.213Z,10.59
2022-11-04T21:24:06.944Z,10.58
2022-11-04T21:26:35.355Z,10.41
2022-11-04T21:29:04.703Z,10.65
2022-11-04T21:31:33.211Z,10.66
2022-11-04T21:34:00.195Z,10.66
2022-11-04T21:36:27.189Z,10.43
2022-11-04T21:38:53.649Z,10.36
2022-11-04T21:41:23.180Z,10.39
2022-11-04T21:43:54.737Z,10.61
2022-11-04T21:46:21.364Z,10.48
2022-11-04T21:48:48.241Z,10.49
2022-11-04T21:51:17.784Z,10.38
2022-11-04T21:53:44.713Z,10.38
2022-11-04T21:56:14.918Z,10.58
2022-11-04T21:58:43.781Z,10.52
2022-11-04T22:01:12.642Z,10.62
2022-11-04T22:03:39.458Z,10.40
2022-11-04T22:06:08.492Z,10.32
2022-11-04T22:08:36.158Z,10.48
2022-11-04T22:11:17.680Z,10.55
2022-11-04T22:13:44.542Z,10.22
2022-11-04T22:16:16.971Z,10.16
2022-11-04T22:18:43.542Z,10.21
2022-11-04T22:21:13.491Z,10.20
2022-11-04T22:23:40.315Z,10.21
2022-11-04T22:26:11.858Z,10.19
2022-11-04T22:28:38.441Z,10.16
2022-11-04T22:31:07.648Z,10.20
2022-11-04T22:33:34.161Z,10.24
2022-11-04T22:36:00.606Z,10.14
2022-11-04T22:38:27.110Z,10.04
2022-11-04T22:40:55.475Z,10.21
2022-11-04T22:43:22.029Z,10.18
2022-11-04T22:45:48.469Z,10.25
2022-11-04T22:48:14.972Z,10.16
2022-11-04T22:50:41.399Z,10.15
2022-11-04T22:53:08.175Z,10.18
2022-11-04T22:55:36.308Z,9.99
2022-11-04T22:58:03.540Z,10.07
2022-11-04T23:00:31.109Z,10.17
2022-11-04T23:02:58.007Z,10.13
2022-11-04T23:05:27.326Z,10.06
2022-11-04T23:07:54.392Z,10.06
2022-11-04T23:10:39.418Z,9.94
2022-11-04T23:13:24.856Z,9.97
2022-11-04T23:16:10.070Z,10.06
2022-11-04T23:18:42.502Z,10.17
2022-11-04T23:21:37.066Z,10.11
2022-11-04T23:24:22.168Z,10.23
2022-11-04T23:26:48.809Z,10.19
2022-11-04T23:29:34.939Z,9.96
2022-11-04T23:32:01.563Z,9.98
2022-11-04T23:34:46.937Z,9.85
2022-11-04T23:37:14.896Z,10.21
2022-11-04T23:39:47.676Z,10.33
2022-11-04T23:42:22.942Z,10.38
2022-11-04T23:45:14.940Z,10.48
2022-11-04T23:48:04.237Z,10.29
2022-11-04T23:50:55.557Z,10.51
2022-11-04T23:53:40.711Z,10.57
2022-11-04T23:56:28.779Z,10.38
2022-11-04T23:59:14.009Z,10.32
